Time,TemperatureF,DewpointF,PressureIn,WindDirection,WindDirectionDegrees,WindSpeedMPH,WindSpeedGustMPH,Humidity,HourlyPrecipIn,Conditions,Clouds,dailyrainin,SoftwareType,DateUTC
2013-04-18 00:00:00,42.1,31.6,30.27,North,0,0.0,0.0,66,0.00,,---,-99.99,VWS V14.01,2013-04-18 04:00:00,
2013-04-18 01:00:00,40.6,28.2,30.27,North,0,0.0,0.0,61,0.00,,---,-99.99,VWS V14.01,2013-04-18 05:00:00,
2013-04-18 02:00:00,40.6,28.2,30.29,North,0,0.0,0.0,61,0.00,,---,-99.99,VWS V14.01,2013-04-18 06:00:00,
2013-04-18 03:00:00,37.0,26.0,30.30,North,0,0.0,0.0,64,0.00,,---,-99.99,VWS V14.01,2013-04-18 07:00:00,
2013-04-18 04:00:00,35.2,27.1,30.34,North,0,0.0,0.0,72,0.00,,---,-99.99,VWS V14.01,2013-04-18 08:00:00,
2013-04-18 05:00:00,34.9,24.0,30.38,North,0,0.0,0.0,64,0.00,,---,-99.99,VWS V14.01,2013-04-18 09:00:00,
2013-04-18 06:00:00,34.3,24.5,30.38,North,0,0.0,0.0,67,0.00,,---,-99.99,VWS V14.01,2013-04-18 10:00:00,
2013-04-18 07:00:00,35.6,28.1,30.38,North,0,0.0,1.0,74,0.00,,---,-99.99,VWS V14.01,2013-04-18 11:00:00,
2013-04-18 08:00:00,38.8,28.1,30.42,North,0,0.0,2.0,65,0.00,,---,-99.99,VWS V14.01,2013-04-18 12:00:00,
2013-04-18 09:00:00,44.1,27.1,30.39,North,0,0.0,1.0,51,0.00,,---,-99.99,VWS V14.01,2013-04-18 13:00:00,
2013-04-18 10:00:00,44.1,27.1,30.38,NE,45,1.0,2.0,51,0.00,,---,-99.99,VWS V14.01,2013-04-18 14:00:00,
2013-04-18 11:00:00,46.1,25.4,30.40,NE,45,1.0,5.0,44,0.00,,---,-99.99,VWS V14.01,2013-04-18 15:00:00,
2013-04-18 12:00:00,43.9,23.4,30.40,SSW,202,0.0,5.0,44,0.00,,---,-99.99,VWS V14.01,2013-04-18 16:00:00,
2013-04-18 13:00:00,46.1,29.9,30.38,SW,225,1.0,5.0,53,0.00,,---,-99.99,VWS V14.01,2013-04-18 17:00:00,
2013-04-18 14:00:00,46.1,29.9,30.36,SW,225,1.0,0.0,53,0.00,,---,-99.99,VWS V14.01,2013-04-18 18:00:00,
2013-04-18 15:00:00,43.5,34.4,30.33,SW,225,1.0,5.0,70,0.00,,---,-99.99,VWS V14.01,2013-04-18 19:00:00,
2013-04-18 16:00:00,42.3,34.3,30.32,SSW,202,0.0,3.0,73,0.00,,---,-99.99,VWS V14.01,2013-04-18 20:00:00,
2013-04-18 17:00:00,42.3,34.3,30.27,SW,225,0.0,2.0,73,0.00,,---,-99.99,VWS V14.01,2013-04-18 21:00:00,
2013-04-18 18:00:00,42.2,36.8,30.25,SSE,158,0.0,2.0,81,0.00,,---,-99.99,VWS V14.01,2013-04-18 22:00:00,
2013-04-18 19:00:00,42.2,37.1,30.22,SSW,202,0.0,6.0,82,0.00,,---,-99.99,VWS V14.01,2013-04-18 23:00:00,
2013-04-18 20:00:00,42.2,37.1,30.20,SSW,202,1.0,8.0,82,0.00,,---,-99.99,VWS V14.01,2013-04-19 00:00:00,
2013-04-18 21:00:00,44.1,39.0,30.19,SSW,202,0.0,0.0,82,0.00,,---,-99.99,VWS V14.01,2013-04-19 01:00:00,
2013-04-18 22:00:00,44.1,39.0,30.17,SSE,158,2.0,8.0,82,0.00,,---,-99.99,VWS V14.01,2013-04-19 02:00:00,
2013-04-18 23:00:00,45.2,40.0,30.14,SSW,202,7.0,11.0,82,0.00,,---,-99.99,VWS V14.01,2013-04-19 03:00:00,